Time;durP1;ratioP1;P1;durP2;ratioP2;P2;SDS_P1;SDS_P2;PMS_P1;PMS_P2;Temp;Humidity;BMP_temperature;BMP_pressure;BME280_temperature;BME280_humidity;BME280_pressure;Samples;Min_cycle;Max_cycle;Signal;HPM_P1;HPM_P2
2022/07/24 00:00:02;;;;;;;13.13;4.68;;;;;;;16.36;100.00;98218.16;5124454;28;20154;-92
2022/07/24 00:02:27;;;;;;;11.57;4.63;;;;;;;16.44;100.00;98222.28;5129709;27;20055;-94
2022/07/24 00:05:33;;;;;;;10.98;4.38;;;;;;;16.43;100.00;98223.19;5122901;28;20026;-92
2022/07/24 00:07:59;;;;;;;11.27;4.60;;;;;;;16.41;100.00;98214.47;5114947;28;20032;-92
2022/07/24 00:10:25;;;;;;;9.38;4.20;;;;;;;16.46;100.00;98209.88;5107960;28;20102;-91
2022/07/24 00:12:50;;;;;;;10.18;4.60;;;;;;;16.57;100.00;98215.56;5111990;28;20027;-91
2022/07/24 00:15:16;;;;;;;8.88;3.88;;;;;;;16.45;100.00;98206.41;5113156;28;20019;-93
2022/07/24 00:18:06;;;;;;;10.85;4.55;;;;;;;16.49;100.00;98207.13;5111895;28;20028;-92
2022/07/24 00:21:04;;;;;;;13.38;4.45;;;;;;;16.52;100.00;98194.69;5113812;28;20019;-93
2022/07/24 00:23:30;;;;;;;8.52;3.92;;;;;;;16.42;100.00;98189.88;5107926;28;20035;-93
2022/07/24 00:25:56;;;;;;;10.10;4.18;;;;;;;16.39;100.00;98201.38;5111053;28;20479;-92
2022/07/24 00:28:21;;;;;;;11.15;4.47;;;;;;;16.48;100.00;98193.13;5114806;28;20480;-93
2022/07/24 00:30:47;;;;;;;9.63;4.13;;;;;;;16.36;100.00;98189.22;5112481;27;20031;-93
2022/07/24 00:33:13;;;;;;;9.48;4.50;;;;;;;16.31;100.00;98190.31;5111646;28;20023;-93
2022/07/24 00:35:38;;;;;;;8.43;3.78;;;;;;;16.33;100.00;98193.75;5110982;28;20173;-94
2022/07/24 00:38:06;;;;;;;10.20;3.80;;;;;;;16.43;100.00;98191.59;5110460;28;20107;-94
2022/07/24 00:40:32;;;;;;;10.32;4.00;;;;;;;16.36;100.00;98189.22;5107303;28;20054;-94
2022/07/24 00:42:58;;;;;;;10.70;4.03;;;;;;;16.37;100.00;98183.03;5109026;28;20463;-94
2022/07/24 00:45:24;;;;;;;9.88;4.15;;;;;;;16.37;100.00;98177.78;5111489;28;20020;-93
2022/07/24 00:47:50;;;;;;;11.10;4.32;;;;;;;16.35;100.00;98169.09;5107507;28;20034;-93
2022/07/24 00:50:16;;;;;;;9.35;3.83;;;;;;;16.35;100.00;98166.47;5107291;28;20043;-93
2022/07/24 00:52:44;;;;;;;10.20;3.47;;;;;;;16.33;100.00;98177.97;5105763;28;20024;-93
2022/07/24 00:55:10;;;;;;;10.55;4.00;;;;;;;16.34;100.00;98154.22;5110988;27;20079;-91
2022/07/24 00:57:37;;;;;;;9.70;3.50;;;;;;;16.50;100.00;98146.50;5104937;28;20028;-94
2022/07/24 01:00:07;;;;;;;9.85;3.72;;;;;;;16.47;100.00;98130.84;5088024;28;20032;-93
2022/07/24 01:02:39;;;;;;;10.00;3.80;;;;;;;16.43;100.00;98113.50;5087894;28;20028;-93
2022/07/24 01:05:05;;;;;;;11.93;4.30;;;;;;;17.42;100.00;98126.69;5090519;28;20019;-94
2022/07/24 01:07:31;;;;;;;15.95;3.88;;;;;;;16.49;100.00;98104.47;5090561;28;20043;-93
2022/07/24 01:09:56;;;;;;;8.73;3.80;;;;;;;17.77;100.00;98088.06;5092737;28;20027;-94
2022/07/24 01:12:22;;;;;;;9.90;3.13;;;;;;;17.73;100.00;98061.00;5089717;28;20421;-93
2022/07/24 01:14:48;;;;;;;8.73;3.70;;;;;;;17.78;100.00;98028.28;5086428;28;20036;-92
2022/07/24 01:17:13;;;;;;;8.38;3.58;;;;;;;17.90;100.00;98010.03;5083460;28;20020;-94
2022/07/24 01:19:39;;;;;;;8.15;3.22;;;;;;;18.09;100.00;98022.31;5091599;28;20043;-93
2022/07/24 01:22:04;;;;;;;9.70;3.58;;;;;;;17.44;100.00;98012.34;5089011;28;20028;-94
2022/07/24 01:24:31;;;;;;;11.25;3.83;;;;;;;16.47;100.00;98036.09;5090823;28;20023;-93
2022/07/24 01:26:57;;;;;;;8.55;3.47;;;;;;;16.44;100.00;98040.66;5084992;28;20032;-94
2022/07/24 01:29:23;;;;;;;11.90;3.78;;;;;;;17.75;100.00;98066.19;5090650;28;20078;-93
2022/07/24 01:31:48;;;;;;;10.25;3.47;;;;;;;16.52;100.00;98028.00;5090581;28;20031;-93
2022/07/24 01:34:21;;;;;;;11.45;3.88;;;;;;;16.47;100.00;98053.69;5088462;28;20040;-94
2022/07/24 01:36:47;;;;;;;10.32;3.65;;;;;;;16.49;100.00;98059.72;5091643;28;20034;-95
2022/07/24 01:39:12;;;;;;;11.07;3.50;;;;;;;16.43;100.00;98055.59;5094316;28;20032;-93
2022/07/24 01:41:38;;;;;;;11.02;3.55;;;;;;;16.50;100.00;98070.19;5091154;28;20032;-93
2022/07/24 01:44:04;;;;;;;10.77;3.30;;;;;;;16.44;100.00;98061.72;5090966;28;20023;-92
2022/07/24 01:46:29;;;;;;;11.68;3.72;;;;;;;16.39;100.00;98061.91;5085769;28;20036;-92
2022/07/24 01:48:55;;;;;;;9.50;3.65;;;;;;;16.37;100.00;98061.13;5088329;28;20055;-91
2022/07/24 01:51:20;;;;;;;11.02;4.03;;;;;;;16.36;100.00;98065.53;5088910;28;20394;-94
2022/07/24 01:53:46;;;;;;;9.68;3.53;;;;;;;16.44;100.00;98061.72;5090828;28;20108;-92
2022/07/24 01:56:36;;;;;;;9.93;3.80;;;;;;;16.40;100.00;98068.03;5108300;28;20841;-91
2022/07/24 01:59:07;;;;;;;11.48;3.72;;;;;;;16.42;100.00;98063.56;5096310;28;20039;-94
2022/07/24 02:01:34;;;;;;;10.50;3.67;;;;;;;16.44;100.00;98064.34;5104273;28;20122;-92
2022/07/24 02:03:59;;;;;;;10.43;3.90;;;;;;;16.37;100.00;98061.97;5102303;28;20137;-93
2022/07/24 02:06:29;;;;;;;12.10;3.88;;;;;;;16.35;100.00;98073.50;5106029;28;20183;-92
2022/07/24 02:08:57;;;;;;;10.68;3.92;;;;;;;16.36;100.00;98073.41;5106857;28;20027;-93
2022/07/24 02:11:23;;;;;;;11.15;4.20;;;;;;;16.48;100.00;98068.56;5106200;28;20081;-94
2022/07/24 02:13:49;;;;;;;8.85;3.78;;;;;;;16.42;100.00;98074.09;5106569;28;20023;-93
2022/07/24 02:16:15;;;;;;;11.07;4.20;;;;;;;16.36;100.00;98064.69;5098363;27;20074;-92
2022/07/24 02:18:40;;;;;;;10.38;3.75;;;;;;;16.37;100.00;98088.28;5106048;28;20483;-92
2022/07/24 02:21:09;;;;;;;11.25;3.45;;;;;;;16.29;100.00;98073.78;5107329;28;20038;-92
2022/07/24 02:23:34;;;;;;;11.02;4.00;;;;;;;16.26;100.00;98090.53;5103510;28;20036;-91
2022/07/24 02:26:00;;;;;;;9.40;3.67;;;;;;;16.33;100.00;98091.97;5106691;28;20027;-92
2022/07/24 02:28:27;;;;;;;10.50;3.50;;;;;;;16.39;100.00;98088.22;5104589;28;20023;-93
2022/07/24 02:30:54;;;;;;;11.65;3.80;;;;;;;16.34;100.00;98104.22;5105718;28;20098;-91
2022/07/24 02:33:25;;;;;;;12.48;4.03;;;;;;;16.28;100.00;98104.47;5124797;27;20124;-93
2022/07/24 02:35:50;;;;;;;13.32;3.90;;;;;;;16.24;100.00;98097.63;5104955;28;20035;-92
2022/07/24 02:38:16;;;;;;;9.38;3.75;;;;;;;16.16;100.00;98097.97;5107840;28;20034;-93
2022/07/24 02:40:41;;;;;;;10.93;3.83;;;;;;;16.12;100.00;98104.28;5108771;28;20031;-94
2022/07/24 02:43:07;;;;;;;12.18;4.80;;;;;;;15.87;100.00;98126.31;5106627;28;20019;-93
2022/07/24 02:45:33;;;;;;;11.15;3.92;;;;;;;15.85;100.00;98138.69;5105031;28;20499;-93
2022/07/24 02:47:59;;;;;;;13.00;4.47;;;;;;;15.61;100.00;98158.03;5100866;28;20609;-92
2022/07/24 02:50:30;;;;;;;12.52;4.55;;;;;;;15.52;100.00;98165.38;5100238;28;20031;-94
2022/07/24 02:52:56;;;;;;;10.68;4.60;;;;;;;15.40;100.00;98180.75;5106004;28;20023;-93
2022/07/24 02:55:21;;;;;;;11.52;4.45;;;;;;;15.35;100.00;98205.44;5105308;28;20040;-93
2022/07/24 02:57:47;;;;;;;12.10;4.63;;;;;;;15.30;100.00;98219.66;5104638;28;20054;-91
2022/07/24 03:00:15;;;;;;;9.63;3.92;;;;;;;15.25;100.00;98240.81;5104407;28;20047;-92
2022/07/24 03:02:41;;;;;;;10.15;4.22;;;;;;;15.25;100.00;98246.06;5098830;28;20544;-93
2022/07/24 03:05:10;;;;;;;10.35;4.15;;;;;;;15.29;100.00;98238.94;5100542;28;20028;-92
2022/07/24 03:07:37;;;;;;;10.80;4.45;;;;;;;15.31;100.00;98256.38;5101815;28;20119;-93
2022/07/24 03:10:09;;;;;;;10.45;3.75;;;;;;;15.29;100.00;98250.28;5105649;28;20027;-94
2022/07/24 03:12:35;;;;;;;10.82;3.97;;;;;;;15.25;100.00;98248.69;5117813;27;20046;-93
2022/07/24 03:15:01;;;;;;;9.00;3.40;;;;;;;15.26;100.00;98255.66;5099477;28;20055;-92
2022/07/24 03:17:27;;;;;;;9.43;3.58;;;;;;;15.18;100.00;98265.59;5097357;28;20046;-93
2022/07/24 03:19:52;;;;;;;9.70;3.40;;;;;;;15.17;100.00;98271.75;5096099;28;20036;-92
2022/07/24 03:22:18;;;;;;;10.48;3.75;;;;;;;15.12;100.00;98269.28;5095392;28;20570;-92
2022/07/24 03:24:43;;;;;;;9.43;3.38;;;;;;;15.19;100.00;98257.66;5098005;28;21743;-91
2022/07/24 03:27:09;;;;;;;8.15;2.90;;;;;;;15.16;100.00;98256.94;5092084;28;20920;-91
2022/07/24 03:29:35;;;;;;;9.55;3.42;;;;;;;15.21;100.00;98264.63;5099447;28;20027;-92
2022/07/24 03:32:01;;;;;;;8.13;3.03;;;;;;;15.12;100.00;98257.94;5095523;28;20548;-91
2022/07/24 03:34:26;;;;;;;11.52;3.47;;;;;;;15.10;100.00;98255.38;5095311;28;20040;-92
2022/07/24 03:36:52;;;;;;;8.85;3.08;;;;;;;15.20;100.00;98266.41;5096367;28;20114;-92
2022/07/24 03:39:17;;;;;;;7.10;2.85;;;;;;;15.17;100.00;98249.00;5094774;28;20039;-90
2022/07/24 03:41:43;;;;;;;7.78;3.05;;;;;;;15.22;100.00;98261.09;5100262;28;20112;-90
2022/07/24 03:44:09;;;;;;;7.07;2.70;;;;;;;15.34;100.00;98251.00;5098619;28;20068;-91
2022/07/24 03:46:34;;;;;;;7.88;2.80;;;;;;;15.25;100.00;98248.69;5096784;28;20757;-91
2022/07/24 03:49:00;;;;;;;8.60;2.58;;;;;;;15.25;100.00;98253.94;5101038;27;20036;-91
2022/07/24 03:51:26;;;;;;;9.15;3.00;;;;;;;15.27;100.00;98248.66;5099881;28;20023;-91
2022/07/24 03:53:51;;;;;;;10.48;2.85;;;;;;;15.22;100.00;98251.44;5101127;28;20031;-92
2022/07/24 03:56:17;;;;;;;7.32;2.55;;;;;;;15.24;100.00;98249.63;5101189;28;20035;-91
2022/07/24 03:58:43;;;;;;;7.50;2.60;;;;;;;15.25;100.00;98246.06;5078910;28;20028;-91
2022/07/24 04:01:09;;;;;;;7.25;2.55;;;;;;;16.37;100.00;98258.50;5080599;28;20036;-91
2022/07/24 04:03:35;;;;;;;7.13;2.55;;;;;;;16.23;100.00;98234.50;5081651;28;20036;-91
2022/07/24 04:06:02;;;;;;;7.90;2.50;;;;;;;16.36;100.00;98219.94;5097055;28;20035;-92
2022/07/24 04:08:28;;;;;;;8.27;2.38;;;;;;;16.15;100.00;98219.91;5079877;28;20050;-92
2022/07/24 04:10:56;;;;;;;7.88;2.60;;;;;;;16.26;100.00;98216.00;5078843;28;20035;-91
2022/07/24 04:13:26;;;;;;;8.40;2.45;;;;;;;16.24;100.00;98218.66;5077226;28;20020;-91
2022/07/24 04:15:53;;;;;;;7.05;2.88;;;;;;;15.59;100.00;98196.66;5078600;28;20035;-91
2022/07/24 04:18:18;;;;;;;7.68;2.67;;;;;;;16.26;100.00;98203.69;5079107;28;20032;-92
2022/07/24 04:20:44;;;;;;;7.97;2.90;;;;;;;16.51;100.00;98210.56;5098627;28;20043;-93
2022/07/24 04:23:09;;;;;;;8.82;3.00;;;;;;;16.57;100.00;98199.75;5098539;28;21582;-92
2022/07/24 04:25:39;;;;;;;7.82;2.80;;;;;;;16.42;100.00;98192.50;5084485;28;20035;-91
2022/07/24 04:28:05;;;;;;;8.60;2.58;;;;;;;16.42;100.00;98174.94;5077297;28;20089;-91
2022/07/24 04:30:30;;;;;;;7.05;2.13;;;;;;;15.60;100.00;98170.34;5079388;28;20039;-91
2022/07/24 04:32:56;;;;;;;6.30;2.42;;;;;;;15.34;100.00;98201.06;5100485;28;20027;-91
2022/07/24 04:35:22;;;;;;;6.70;2.50;;;;;;;16.16;100.00;98199.72;5082784;28;20024;-89
2022/07/24 04:37:49;;;;;;;8.10;2.17;;;;;;;16.95;100.00;98225.41;5084267;28;21108;-92
2022/07/24 04:40:14;;;;;;;7.32;2.13;;;;;;;17.30;100.00;98230.88;5087895;28;20019;-93
2022/07/24 04:42:40;;;;;;;9.63;2.33;;;;;;;15.52;100.00;98207.41;5082126;28;20661;-92
2022/07/24 04:45:10;;;;;;;6.50;2.10;;;;;;;16.01;100.00;98224.88;5079362;28;20027;-91
2022/07/24 04:47:39;;;;;;;5.78;1.95;;;;;;;16.84;100.00;98225.81;5083727;28;20285;-91
2022/07/24 04:50:07;;;;;;;7.75;2.13;;;;;;;16.90;100.00;98204.53;5078160;28;20479;-92
2022/07/24 04:52:32;;;;;;;6.45;2.25;;;;;;;15.64;100.00;98205.22;5081476;28;20049;-90
2022/07/24 04:54:58;;;;;;;6.97;2.30;;;;;;;15.52;100.00;98206.56;5098890;28;20610;-91
2022/07/24 04:57:23;;;;;;;6.43;1.88;;;;;;;15.50;100.00;98218.88;5099791;28;20104;-92
2022/07/24 04:59:49;;;;;;;7.32;1.88;;;;;;;15.55;100.00;98231.88;5099960;28;20016;-92
2022/07/24 05:02:15;;;;;;;7.00;1.90;;;;;;;15.55;100.00;98227.47;5078713;28;20028;-92
2022/07/24 05:04:40;;;;;;;6.75;1.50;;;;;;;15.56;100.00;98233.56;5079380;28;20212;-92
2022/07/24 05:07:09;;;;;;;9.48;1.67;;;;;;;15.57;100.00;98236.13;5090431;28;20118;-91
2022/07/24 05:09:34;;;;;;;4.25;1.30;;;;;;;15.62;100.00;98226.31;5090586;27;20038;-92
2022/07/24 05:12:00;;;;;;;4.60;1.15;;;;;;;15.58;100.00;98240.50;5086113;28;20043;-92
2022/07/24 05:14:25;;;;;;;3.92;1.23;;;;;;;15.52;100.00;98238.09;5087285;28;20106;-91
2022/07/24 05:16:51;;;;;;;4.80;1.33;;;;;;;15.60;100.00;98243.06;5080735;28;20479;-92
2022/07/24 05:19:16;;;;;;;4.70;1.15;;;;;;;15.56;100.00;98247.59;5078875;28;20028;-91
2022/07/24 05:21:43;;;;;;;3.95;1.30;;;;;;;15.57;100.00;98249.28;5097581;28;20505;-91
2022/07/24 05:24:08;;;;;;;5.65;1.40;;;;;;;15.62;100.00;98247.34;5096150;28;20106;-92
2022/07/24 05:26:34;;;;;;;5.45;1.20;;;;;;;15.61;100.00;98237.72;5098383;28;20119;-91
2022/07/24 05:29:05;;;;;;;5.10;1.40;;;;;;;16.24;100.00;98242.34;5079730;28;20031;-90
2022/07/24 05:31:30;;;;;;;7.00;1.65;;;;;;;15.63;100.00;98256.94;5081794;28;20028;-91
2022/07/24 05:33:57;;;;;;;5.50;1.50;;;;;;;15.69;100.00;98254.06;5100800;28;20967;-91
2022/07/24 05:36:23;;;;;;;5.80;1.35;;;;;;;18.86;100.00;98258.66;5080776;28;20031;-91
2022/07/24 05:38:48;;;;;;;5.22;1.38;;;;;;;19.28;100.00;98254.75;5078029;28;20544;-91
2022/07/24 05:41:14;;;;;;;5.63;1.80;;;;;;;17.43;100.00;98202.22;5081387;28;20049;-92
2022/07/24 05:43:39;;;;;;;7.32;1.70;;;;;;;17.03;100.00;98167.97;5085776;28;20031;-92
2022/07/24 05:46:05;;;;;;;5.28;1.70;;;;;;;17.18;100.00;98159.38;5086238;28;20478;-92
2022/07/24 05:48:31;;;;;;;5.85;1.70;;;;;;;17.75;100.00;98142.69;5100300;28;20429;-92
2022/07/24 05:50:57;;;;;;;5.68;1.52;;;;;;;17.27;100.00;98115.94;5082442;28;20027;-92
2022/07/24 05:53:23;;;;;;;5.95;1.50;;;;;;;15.85;100.00;98114.16;5080848;28;20042;-92
2022/07/24 05:55:49;;;;;;;4.60;1.48;;;;;;;15.91;100.00;98150.75;5096238;28;20233;-92
2022/07/24 05:58:15;;;;;;;5.72;1.60;;;;;;;15.92;100.00;98165.59;5099925;28;20484;-93
2022/07/24 06:00:40;;;;;;;6.80;1.80;;;;;;;15.92;100.00;98180.50;5100921;28;20046;-92
2022/07/24 06:03:09;;;;;;;5.30;1.58;;;;;;;15.94;100.00;98189.22;5098966;28;20024;-91
2022/07/24 06:05:35;;;;;;;6.80;1.60;;;;;;;16.48;100.00;98197.53;5097891;28;20489;-92
2022/07/24 06:08:00;;;;;;;4.95;1.50;;;;;;;16.44;100.00;98186.28;5095073;28;20038;-92
2022/07/24 06:10:26;;;;;;;5.60;1.50;;;;;;;16.22;100.00;98181.03;5098399;28;20154;-92
2022/07/24 06:12:52;;;;;;;5.30;1.63;;;;;;;16.18;100.00;98177.66;5098148;28;20445;-90
2022/07/24 06:15:17;;;;;;;4.68;1.35;;;;;;;16.21;100.00;98176.69;5103341;28;20484;-92
2022/07/24 06:17:52;;;;;;;5.28;1.35;;;;;;;16.28;100.00;98172.88;5102526;28;20710;-92
2022/07/24 06:20:18;;;;;;;4.70;1.30;;;;;;;16.28;100.00;98172.88;5097746;28;20027;-93
2022/07/24 06:22:44;;;;;;;4.30;1.27;;;;;;;16.28;100.00;98162.34;5099411;28;20467;-92
2022/07/24 06:25:10;;;;;;;5.32;1.40;;;;;;;16.40;100.00;98168.06;5102090;28;20039;-92
2022/07/24 06:27:43;;;;;;;5.50;1.27;;;;;;;16.39;100.00;98167.16;5103479;28;20019;-94
2022/07/24 06:30:18;;;;;;;;;;;;;;;16.59;100.00;98170.72;5106138;28;20039;-95
2022/07/24 06:32:44;;;;;;;5.55;1.30;;;;;;;16.40;100.00;98157.53;5099338;28;19912;-92
2022/07/24 06:35:10;;;;;;;4.55;1.20;;;;;;;16.38;100.00;98168.09;5101593;28;20068;-92
2022/07/24 06:37:47;;;;;;;6.85;1.35;;;;;;;16.46;100.00;98159.88;5097162;28;20067;-92
2022/07/24 06:40:14;;;;;;;5.70;1.40;;;;;;;17.05;100.00;98131.88;5101016;28;20051;-92
2022/07/24 06:42:39;;;;;;;6.28;1.40;;;;;;;16.55;100.00;98130.53;5103446;28;20027;-92
2022/07/24 06:45:05;;;;;;;5.63;1.50;;;;;;;16.59;100.00;98145.28;5103541;28;20567;-92
2022/07/24 06:47:31;;;;;;;4.88;1.40;;;;;;;16.58;100.00;98156.72;5103289;28;20035;-92
2022/07/24 06:49:57;;;;;;;3.60;1.20;;;;;;;16.51;100.00;98164.03;5102286;28;20027;-93
2022/07/24 06:52:22;;;;;;;3.85;0.90;;;;;;;16.41;100.00;98167.97;5102014;28;20444;-93
2022/07/24 06:54:49;;;;;;;2.83;0.90;;;;;;;16.57;100.00;98178.69;5104642;28;20047;-92
2022/07/24 06:57:16;;;;;;;3.72;1.10;;;;;;;16.68;100.00;98192.25;5101063;28;20035;-92
2022/07/24 06:59:42;;;;;;;3.47;1.00;;;;;;;16.83;100.00;98182.00;5100685;28;20077;-92
2022/07/24 07:02:07;;;;;;;5.03;1.08;;;;;;;16.79;100.00;98167.25;5100867;28;20032;-93
2022/07/24 07:04:33;;;;;;;4.50;1.17;;;;;;;16.87;100.00;98165.13;5102163;28;20027;-93
2022/07/24 07:06:58;;;;;;;5.30;1.40;;;;;;;16.87;100.00;98157.25;5100901;28;20093;-93
2022/07/24 07:09:24;;;;;;;6.60;1.70;;;;;;;17.00;100.00;98137.34;5088182;28;20089;-94
2022/07/24 07:11:50;;;;;;;6.70;1.88;;;;;;;17.01;100.00;98117.13;5079984;28;20032;-93
2022/07/24 07:14:15;;;;;;;5.78;1.80;;;;;;;17.04;100.00;98114.34;5075004;28;20461;-93
2022/07/24 07:16:41;;;;;;;14.38;2.47;;;;;;;17.07;100.00;98082.59;5076007;28;20055;-91
2022/07/24 07:19:07;;;;;;;5.90;1.80;;;;;;;17.26;100.00;98068.56;5079601;28;20118;-92
2022/07/24 07:21:33;;;;;;;5.72;1.80;;;;;;;18.69;100.00;98074.63;5079964;28;20514;-92
2022/07/24 07:23:58;;;;;;;7.28;2.10;;;;;;;17.46;100.00;98064.97;5074690;28;20066;-90
2022/07/24 07:26:24;;;;;;;5.88;1.98;;;;;;;17.54;100.00;98062.84;5079197;28;20024;-92
2022/07/24 07:28:50;;;;;;;6.40;1.90;;;;;;;17.26;100.00;98056.25;5074598;28;20031;-92
2022/07/24 07:31:15;;;;;;;7.45;1.90;;;;;;;17.23;100.00;98072.22;5084202;28;20106;-91
2022/07/24 07:33:41;;;;;;;6.35;1.90;;;;;;;17.62;100.00;98046.63;5077417;28;20047;-93
2022/07/24 07:36:08;;;;;;;6.35;1.80;;;;;;;17.27;100.00;98057.09;5081830;28;21628;-94
2022/07/24 07:38:35;;;;;;;5.63;1.63;;;;;;;17.47;100.00;98070.19;5085423;28;20053;-94
2022/07/24 07:41:00;;;;;;;6.28;1.70;;;;;;;17.46;100.00;98075.53;5079900;28;20031;-93
2022/07/24 07:43:33;;;;;;;5.60;1.88;;;;;;;17.48;100.00;98063.13;5083598;28;20040;-95
2022/07/24 07:45:58;;;;;;;5.55;1.70;;;;;;;17.59;100.00;98066.06;5082617;28;20024;-94
2022/07/24 07:48:24;;;;;;;6.20;1.85;;;;;;;17.49;100.00;98088.56;5080033;28;20384;-93
2022/07/24 07:50:50;;;;;;;5.05;1.60;;;;;;;17.62;100.00;98084.41;5082152;28;20023;-92
2022/07/24 07:53:16;;;;;;;5.40;1.60;;;;;;;17.79;100.00;98080.94;5079492;28;20039;-93
2022/07/24 07:55:42;;;;;;;5.43;1.60;;;;;;;18.07;100.00;98085.72;5081565;28;20479;-94
2022/07/24 07:58:09;;;;;;;5.85;1.60;;;;;;;17.96;100.00;98074.84;5082653;28;20115;-93
2022/07/24 08:00:37;;;;;;;5.55;1.52;;;;;;;18.06;100.00;98078.75;5080994;28;20032;-94
2022/07/24 08:03:02;;;;;;;4.97;1.48;;;;;;;17.89;100.00;98066.34;5081140;28;20412;-93
2022/07/24 08:05:29;;;;;;;5.85;1.60;;;;;;;18.25;100.00;98077.81;5076137;28;20031;-93
2022/07/24 08:07:55;;;;;;;5.10;1.50;;;;;;;18.01;100.00;98070.22;5082911;28;20095;-93
2022/07/24 08:10:22;;;;;;;6.45;1.48;;;;;;;17.88;100.00;98074.34;5081613;28;20059;-93
2022/07/24 08:12:48;;;;;;;5.07;1.45;;;;;;;17.89;100.00;98069.00;5082316;28;20161;-93
2022/07/24 08:15:17;;;;;;;4.75;1.20;;;;;;;18.13;100.00;98068.72;5084106;28;20099;-93
2022/07/24 08:17:44;;;;;;;5.90;1.30;;;;;;;17.83;100.00;98065.78;5084067;28;20038;-95
2022/07/24 08:20:10;;;;;;;4.43;1.30;;;;;;;17.88;100.00;98069.06;5082610;28;20035;-94
2022/07/24 08:22:39;;;;;;;4.18;1.13;;;;;;;17.73;100.00;98071.53;5087694;28;20028;-94
2022/07/24 08:25:05;;;;;;;5.40;1.63;;;;;;;17.97;100.00;98075.69;5082373;28;20024;-93
2022/07/24 08:27:30;;;;;;;5.72;1.30;;;;;;;18.34;100.00;98073.81;5078344;28;20051;-94
2022/07/24 08:29:56;;;;;;;5.28;1.27;;;;;;;18.31;100.00;98048.44;5080035;28;20512;-94
2022/07/24 08:32:21;;;;;;;4.45;1.23;;;;;;;17.89;100.00;98047.88;5076488;28;20032;-93
2022/07/24 08:35:20;;;;;;;4.28;1.13;;;;;;;18.20;100.00;98027.03;5087352;28;20106;-93
2022/07/24 08:41:35;;;;;;;3.85;1.10;;;;;;;18.03;100.00;98065.69;5083008;28;20038;-92
2022/07/24 08:44:03;;;;;;;3.55;1.05;;;;;;;18.00;100.00;98071.13;5079044;28;20036;-93
2022/07/24 08:46:28;;;;;;;4.38;1.10;;;;;;;17.89;100.00;98076.91;5077616;28;20028;-95
2022/07/24 08:49:02;;;;;;;4.00;1.00;;;;;;;17.88;100.00;98076.97;5078087;28;20162;-94
2022/07/24 08:51:41;;;;;;;4.68;1.27;;;;;;;18.05;100.00;98086.72;5078158;28;20029;-93
2022/07/24 08:54:08;;;;;;;5.13;1.27;;;;;;;18.25;100.00;98083.94;5079334;28;20051;-93
2022/07/24 08:56:41;;;;;;;3.15;1.05;;;;;;;18.40;100.00;98077.00;5081113;28;20024;-94
2022/07/24 08:59:22;;;;;;;4.05;1.10;;;;;;;18.40;100.00;98076.16;5079903;28;20028;-94
2022/07/24 09:02:30;;;;;;;4.40;1.20;;;;;;;18.21;100.00;98066.53;5084904;28;20951;-95
2022/07/24 09:05:44;;;;;;;;;;;;;;;;;;;;;
2022/07/24 09:11:48;;;;;;;6.32;1.23;;;;;;;18.44;100.00;98048.69;5102245;28;20058;-94
2022/07/24 09:14:32;;;;;;;4.13;1.10;;;;;;;18.48;100.00;98049.34;5101741;28;20103;-96
2022/07/24 09:17:10;;;;;;;4.55;1.40;;;;;;;18.88;100.00;98032.25;5097124;27;20117;-96
2022/07/24 09:20:00;;;;;;;6.18;1.40;;;;;;;19.24;100.00;98025.00;5112877;27;20051;-95
2022/07/24 09:22:39;;;;;;;6.20;2.20;;;;;;;19.32;100.00;98001.66;5099815;28;20024;-96
2022/07/24 09:25:26;;;;;;;4.53;1.30;;;;;;;19.23;100.00;97996.88;5088421;28;20028;-95
2022/07/24 09:27:54;;;;;;;6.30;1.60;;;;;;;19.87;100.00;97992.31;5088036;28;20027;-96
2022/07/24 09:30:31;;;;;;;3.65;1.05;;;;;;;20.00;100.00;97963.34;5094428;28;20067;-95
2022/07/24 09:36:27;;;;;;;4.43;1.20;;;;;;;19.82;100.00;97956.47;5111380;28;20104;-94
2022/07/24 09:39:17;;;;;;;4.72;1.13;;;;;;;19.87;100.00;97954.41;5087816;28;20020;-93
2022/07/24 09:41:52;;;;;;;2.90;0.90;;;;;;;19.62;100.00;97958.47;5087821;28;20024;-96
2022/07/24 09:44:18;;;;;;;4.38;1.20;;;;;;;19.70;100.00;97956.25;5082604;28;20019;-90
2022/07/24 09:46:53;;;;;;;3.00;0.98;;;;;;;19.66;100.00;97952.06;5083362;28;20024;-91
2022/07/24 09:49:20;;;;;;;3.05;0.95;;;;;;;19.91;100.00;97926.84;5106406;28;20031;-91
2022/07/24 09:52:16;;;;;;;4.10;1.30;;;;;;;19.86;100.00;97928.91;5081831;28;20067;-91
2022/07/24 09:54:50;;;;;;;3.38;1.00;;;;;;;19.77;100.00;97944.34;5094871;28;20036;-91
2022/07/24 09:57:27;;;;;;;4.95;1.20;;;;;;;19.76;100.00;97952.38;5074779;28;20032;-93
2022/07/24 10:00:06;;;;;;;3.20;1.10;;;;;;;19.26;100.00;97949.09;5103491;28;20032;-92
2022/07/24 10:02:34;;;;;;;3.95;1.00;;;;;;;19.35;100.00;97976.81;5098727;28;20425;-91
2022/07/24 10:05:03;;;;;;;6.65;1.20;;;;;;;19.26;100.00;97984.34;5082682;28;20023;-92
2022/07/24 10:07:29;;;;;;;6.13;1.17;;;;;;;19.11;100.00;97998.44;5083715;28;20028;-91
2022/07/24 10:09:58;;;;;;;4.97;1.10;;;;;;;19.12;100.00;97999.28;5087353;28;21461;-91
2022/07/24 10:12:27;;;;;;;4.72;1.05;;;;;;;19.36;100.00;98008.47;5086867;27;20162;-91
2022/07/24 10:14:59;;;;;;;3.72;1.08;;;;;;;19.40;100.00;98001.19;5079131;28;20118;-92
2022/07/24 10:18:03;;;;;;;3.65;1.20;;;;;;;19.47;100.00;97999.91;5084125;28;20031;-91
2022/07/24 10:20:40;;;;;;;3.95;1.25;;;;;;;19.86;100.00;98003.84;5080328;28;20570;-93
2022/07/24 10:23:20;;;;;;;5.22;1.33;;;;;;;19.92;100.00;97987.59;5087048;28;20063;-91
2022/07/24 10:25:48;;;;;;;4.22;1.30;;;;;;;20.20;100.00;97971.88;5101951;28;20027;-91
2022/07/24 10:28:22;;;;;;;5.03;1.05;;;;;;;20.24;100.00;97962.78;5083677;28;20024;-93
2022/07/24 10:30:48;;;;;;;5.15;1.20;;;;;;;20.19;100.00;97956.91;5087736;28;20042;-94
2022/07/24 10:33:13;;;;;;;3.88;1.15;;;;;;;20.48;100.00;97954.28;5105980;28;20472;-93
2022/07/24 10:35:40;;;;;;;4.57;1.30;;;;;;;20.28;100.00;97943.97;5089526;28;20039;-94
2022/07/24 10:38:24;;;;;;;4.57;1.23;;;;;;;20.19;100.00;97941.88;5088177;28;20031;-94
2022/07/24 10:40:55;;;;;;;3.60;1.00;;;;;;;20.18;100.00;97939.31;5106165;28;20546;-93
2022/07/24 10:43:22;;;;;;;4.60;1.50;;;;;;;20.31;100.00;97940.28;5086133;28;20036;-92
2022/07/24 10:45:56;;;;;;;6.20;1.50;;;;;;;20.52;100.00;97931.94;5094056;28;20534;-96
2022/07/24 10:48:26;;;;;;;5.88;1.52;;;;;;;20.28;100.00;97929.88;5085243;28;20043;-94
2022/07/24 10:50:59;;;;;;;4.25;1.33;;;;;;;20.79;100.00;97926.69;5087629;28;20096;-94
2022/07/24 10:53:37;;;;;;;5.28;1.77;;;;;;;20.60;100.00;97927.84;5105346;28;20031;-93
2022/07/24 10:56:23;;;;;;;6.28;1.60;;;;;;;20.39;100.00;97923.88;5087128;28;20027;-94
2022/07/24 10:58:58;;;;;;;5.10;1.70;;;;;;;20.43;100.00;97923.63;5087006;28;20062;-92
2022/07/24 11:01:44;;;;;;;5.53;1.40;;;;;;;20.08;100.00;97928.44;5081488;28;20058;-94
2022/07/24 11:04:18;;;;;;;5.78;1.63;;;;;;;20.34;100.00;97910.94;5085604;28;20036;-94
2022/07/24 11:06:47;;;;;;;5.40;1.77;;;;;;;20.85;100.00;97905.13;5085914;28;20342;-94
2022/07/24 11:09:14;;;;;;;5.60;1.50;;;;;;;20.97;100.00;97893.72;5108846;28;20383;-94
2022/07/24 11:11:42;;;;;;;4.70;1.40;;;;;;;21.05;100.00;97895.84;5110576;28;20054;-94
2022/07/24 11:14:11;;;;;;;4.13;1.25;;;;;;;20.52;100.00;97908.94;5091055;28;20020;-95
2022/07/24 11:16:37;;;;;;;5.70;1.40;;;;;;;19.63;100.00;97925.81;5104676;28;20016;-94
2022/07/24 11:19:02;;;;;;;5.20;1.50;;;;;;;19.31;100.00;97968.22;5089307;28;20034;-92
2022/07/24 11:21:43;;;;;;;10.60;4.20;;;;;;;18.80;100.00;98030.94;5088855;28;20511;-93
2022/07/24 11:24:19;;;;;;;6.63;1.90;;;;;;;20.14;100.00;98219.28;5086598;28;20028;-95
2022/07/24 11:27:04;;;;;;;4.68;1.40;;;;;;;19.91;100.00;98173.78;5082808;28;20028;-91
2022/07/24 11:29:34;;;;;;;5.03;1.40;;;;;;;20.25;100.00;98110.97;5107627;28;20538;-94
2022/07/24 11:32:03;;;;;;;5.50;1.90;;;;;;;20.50;100.00;98071.56;5095540;28;20023;-95
2022/07/24 11:34:31;;;;;;;5.97;1.88;;;;;;;20.00;100.00;98039.22;5082478;28;20050;-93
2022/07/24 11:36:58;;;;;;;5.75;1.92;;;;;;;19.97;100.00;98028.81;5099557;28;20536;-94
2022/07/24 11:39:32;;;;;;;7.20;2.20;;;;;;;20.02;100.00;98022.31;5097996;28;20031;-94
2022/07/24 11:42:00;;;;;;;7.90;2.00;;;;;;;20.17;100.00;98019.72;5088643;28;20016;-96